TAF KEVV
KEVV 090544Z 0906/1006 13004KT P6SM SCT250 FM091400 15010KT P6SM SCT250 FM091700 18015G25KT P6SM FEW250 FM092300 21010G20KT P6SM BKN028=
METAR KEVV
WC KEVV
WS KEVV
WV KEVV